Time;durP1;ratioP1;P1;durP2;ratioP2;P2;SDS_P1;SDS_P2;PMS_P1;PMS_P2;Temp;Humidity;BMP_temperature;BMP_pressure;BME280_temperature;BME280_humidity;BME280_pressure;Samples;Min_cycle;Max_cycle;Signal;HPM_P1;HPM_P2
2022/01/04 00:01:46;;;;;;;;;;;;;;;5.32;100.00;97897.23;1760050;81;20435;-60
2022/01/04 00:04:12;;;;;;;;;;;;;;;5.32;100.00;97898.97;1758922;79;20095;-60
2022/01/04 00:06:38;;;;;;;;;;;;;;;5.27;100.00;97894.06;1763159;79;21873;-60
2022/01/04 00:09:07;;;;;;;;;;;;;;;5.22;100.00;97895.23;1750823;79;20089;-61
2022/01/04 00:14:13;;;;;;;;;;;;;;;5.20;100.00;97894.47;1707018;82;20521;-60
2022/01/04 00:16:39;;;;;;;;;;;;;;;5.21;100.00;97892.25;1699171;82;20462;-60
2022/01/04 00:19:05;;;;;;;;;;;;;;;5.23;100.00;97890.42;1702754;83;21013;-60
2022/01/04 00:21:32;;;;;;;;;;;;;;;5.25;100.00;97886.00;1717945;82;20573;-61
2022/01/04 00:23:58;;;;;;;;;;;;;;;5.27;100.00;97880.30;1711149;82;20135;-60
2022/01/04 00:26:25;;;;;;;;;;;;;;;5.25;100.00;97878.24;1703882;82;20552;-60
2022/01/04 00:28:51;;;;;;;;;;;;;;;5.26;100.00;97874.27;1704511;82;20142;-61
2022/01/04 00:31:17;;;;;;;;;;;;;;;5.31;100.00;97874.02;1713982;82;21059;-61
2022/01/04 00:33:43;;;;;;;;;;;;;;;5.32;100.00;97871.80;1699936;82;20962;-62
2022/01/04 00:36:10;;;;;;;;;;;;;;;5.31;99.99;97876.60;1704587;82;20102;-60
2022/01/04 00:38:36;;;;;;;;;;;;;;;5.31;100.00;97866.25;1706532;82;20669;-60
2022/01/04 00:41:02;;;;;;;;;;;;;;;5.32;99.99;97862.73;1716179;82;20156;-61
2022/01/04 00:43:29;;;;;;;;;;;;;;;5.30;100.00;97862.84;1730207;82;21046;-60
2022/01/04 00:45:55;;;;;;;;;;;;;;;5.30;100.00;97862.84;1712634;82;20137;-60
2022/01/04 00:50:50;;;;;;;;;;;;;;;5.29;100.00;97858.59;1739625;81;20588;-60
2022/01/04 00:53:16;;;;;;;;;;;;;;;5.32;100.00;97847.20;1762724;81;20098;-61
2022/01/04 00:55:42;;;;;;;;;;;;;;;5.31;100.00;97854.61;1751638;79;21031;-61
2022/01/04 00:58:09;;;;;;;;;;;;;;;5.31;100.00;97846.38;1752484;79;20109;-61
2022/01/04 01:00:35;;;;;;;;;;;;;;;5.31;99.83;97845.55;1770246;79;20126;-61
2022/01/04 01:03:02;;;;;;;;;;;;;;;5.29;99.84;97845.66;1754163;81;20126;-60
2022/01/04 01:05:29;;;;;;;;;;;;;;;5.29;99.80;97844.80;1765230;79;20165;-61
2022/01/04 01:07:56;;;;;;;;;;;;;;;5.28;99.78;97841.84;1754414;80;21092;-61
2022/01/04 01:13:06;;;;;;;;;;;;;;;5.19;99.52;97846.25;1763019;79;20122;-61
2022/01/04 01:15:33;;;;;;;;;;;;;;;5.14;99.48;97840.02;1770594;79;20114;-60
2022/01/04 01:18:00;;;;;;;;;;;;;;;5.10;99.45;97845.00;1757558;80;20157;-60
2022/01/04 01:20:26;;;;;;;;;;;;;;;5.04;99.43;97838.41;1756607;78;22106;-60
2022/01/04 01:22:52;;;;;;;;;;;;;;;5.01;99.50;97830.80;1765297;80;20122;-61
2022/01/04 01:25:20;;;;;;;;;;;;;;;4.99;99.68;97829.23;1770162;78;20085;-60
2022/01/04 01:27:46;;;;;;;;;;;;;;;4.99;99.88;97833.95;1787527;78;20111;-61
2022/01/04 01:30:14;;;;;;;;;;;;;;;5.01;99.82;97826.91;1757125;81;20115;-61
2022/01/04 01:32:40;;;;;;;;;;;;;;;5.02;99.74;97829.89;1757904;79;21037;-61
2022/01/04 01:35:07;;;;;;;;;;;;;;;5.03;99.75;97826.38;1753254;79;20263;-61
2022/01/04 01:37:34;;;;;;;;;;;;;;;5.04;99.67;97828.06;1778438;79;20131;-61
2022/01/04 01:40:01;;;;;;;;;;;;;;;5.03;99.62;97825.08;1754045;81;20125;-61
2022/01/04 01:42:27;;;;;;;;;;;;;;;5.04;99.69;97825.48;1764710;80;20119;-60
2022/01/04 01:44:54;;;;;;;;;;;;;;;5.07;99.81;97825.31;1761828;80;21170;-60
2022/01/04 01:47:20;;;;;;;;;;;;;;;5.10;99.82;97812.20;1745860;81;20477;-61
2022/01/04 01:49:46;;;;;;;;;;;;;;;5.12;99.67;97803.88;1765252;81;20182;-60
2022/01/04 01:52:12;;;;;;;;;;;;;;;5.12;99.54;97805.16;1761319;80;20160;-61
2022/01/04 01:54:39;;;;;;;;;;;;;;;5.12;99.51;97797.41;1743691;80;20444;-60
2022/01/04 01:57:05;;;;;;;;;;;;;;;5.12;99.47;97792.23;1748290;80;21042;-61
2022/01/04 01:59:32;;;;;;;;;;;;;;;5.09;99.23;97792.41;1769386;79;20122;-60
2022/01/04 02:01:58;;;;;;;;;;;;;;;5.03;98.99;97777.23;1761037;79;20110;-60
2022/01/04 02:04:24;;;;;;;;;;;;;;;4.93;98.75;97778.69;1774959;79;20088;-61
2022/01/04 02:06:51;;;;;;;;;;;;;;;4.85;98.72;97775.69;1764994;79;20447;-61
2022/01/04 02:09:18;;;;;;;;;;;;;;;4.78;98.87;97774.34;1770480;79;21160;-61
2022/01/04 02:11:44;;;;;;;;;;;;;;;4.78;99.18;97787.27;1759934;79;20156;-61
2022/01/04 02:14:10;;;;;;;;;;;;;;;4.78;99.47;97774.34;1773212;80;20141;-60
2022/01/04 02:16:37;;;;;;;;;;;;;;;4.81;99.62;97772.88;1779278;80;20084;-61
2022/01/04 02:19:05;;;;;;;;;;;;;;;4.85;99.64;97765.34;1761962;79;20135;-61
2022/01/04 02:21:34;;;;;;;;;;;;;;;4.85;99.39;97764.88;1750286;79;21724;-60
2022/01/04 02:24:01;;;;;;;;;;;;;;;4.82;99.08;97757.75;1776138;79;20496;-61
2022/01/04 02:26:29;;;;;;;;;;;;;;;4.79;99.08;97755.31;1760776;79;20081;-61
2022/01/04 02:28:56;;;;;;;;;;;;;;;4.80;99.32;97764.75;1767906;79;20566;-60
2022/01/04 02:31:22;;;;;;;;;;;;;;;4.84;99.50;97767.53;1771917;79;20113;-60
2022/01/04 02:33:49;;;;;;;;;;;;;;;4.88;99.51;97762.58;1772870;79;21030;-60
2022/01/04 02:36:15;;;;;;;;;;;;;;;4.89;99.42;97760.36;1775227;78;20079;-60
2022/01/04 02:38:41;;;;;;;;;;;;;;;4.91;99.30;97758.53;1785541;80;20096;-60
2022/01/04 02:41:08;;;;;;;;;;;;;;;4.94;99.29;97750.13;1749063;81;20487;-60
2022/01/04 02:43:34;;;;;;;;;;;;;;;4.95;99.27;97749.67;1758625;80;20468;-60
2022/01/04 02:46:00;;;;;;;;;;;;;;;4.96;99.10;97739.72;1761945;80;21032;-60
2022/01/04 02:48:27;;;;;;;;;;;;;;;4.95;99.18;97740.61;1755777;80;20084;-60
2022/01/04 02:50:53;;;;;;;;;;;;;;;4.97;99.28;97735.38;1776145;80;20070;-60
2022/01/04 02:53:19;;;;;;;;;;;;;;;4.97;99.24;97725.85;1752610;81;20104;-60
2022/01/04 02:55:45;;;;;;;;;;;;;;;4.95;99.05;97740.61;1756737;81;20388;-60
2022/01/04 02:58:12;;;;;;;;;;;;;;;4.91;98.76;97737.84;1778325;79;21185;-60
2022/01/04 03:00:39;;;;;;;;;;;;;;;4.86;98.58;97734.67;1764478;80;20147;-60
2022/01/04 03:03:05;;;;;;;;;;;;;;;4.81;98.62;97739.27;1758588;80;20098;-60
2022/01/04 03:05:37;;;;;;;;;;;;;;;4.77;98.76;97741.66;1758551;79;20488;-61
2022/01/04 03:08:04;;;;;;;;;;;;;;;4.73;98.60;97734.97;1759270;81;20251;-61
2022/01/04 03:10:36;;;;;;;;;;;;;;;4.67;98.58;97734.38;1756195;80;21882;-60
2022/01/04 03:13:04;;;;;;;;;;;;;;;4.61;98.65;97736.02;1749392;79;20455;-60
2022/01/04 03:15:31;;;;;;;;;;;;;;;4.59;98.65;97738.31;1759915;79;20471;-61
2022/01/04 03:17:58;;;;;;;;;;;;;;;4.55;98.87;97726.02;1760983;81;20082;-61
2022/01/04 03:20:24;;;;;;;;;;;;;;;4.58;99.09;97716.80;1764831;80;20117;-61
2022/01/04 03:22:50;;;;;;;;;;;;;;;4.62;99.11;97715.73;1757328;80;21039;-60
2022/01/04 03:25:16;;;;;;;;;;;;;;;4.59;99.02;97717.17;1767321;80;20160;-60
2022/01/04 03:27:43;;;;;;;;;;;;;;;4.58;99.06;97719.39;1760252;80;20094;-60
2022/01/04 03:30:10;;;;;;;;;;;;;;;4.60;99.07;97716.27;1767997;79;20493;-61
2022/01/04 03:32:37;;;;;;;;;;;;;;;4.62;99.03;97715.73;1770825;79;20419;-61
2022/01/04 03:35:04;;;;;;;;;;;;;;;4.62;98.94;97713.15;1761252;80;22375;-60
2022/01/04 03:37:31;;;;;;;;;;;;;;;4.61;98.94;97710.64;1748596;79;20108;-61
2022/01/04 03:39:57;;;;;;;;;;;;;;;4.56;98.91;97703.12;1761094;81;20401;-61
2022/01/04 03:42:23;;;;;;;;;;;;;;;4.52;98.83;97693.89;1761191;79;20141;-60
2022/01/04 03:44:50;;;;;;;;;;;;;;;4.47;98.78;97703.64;1761531;80;20150;-60
2022/01/04 03:47:16;;;;;;;;;;;;;;;4.47;98.67;97710.09;1761771;81;21841;-60
2022/01/04 03:49:43;;;;;;;;;;;;;;;4.40;98.60;97712.19;1766477;79;20427;-60
2022/01/04 03:52:09;;;;;;;;;;;;;;;4.34;98.56;97707.80;1753563;79;20474;-60
2022/01/04 03:54:39;;;;;;;;;;;;;;;4.31;98.58;97704.09;1769098;80;20142;-61
2022/01/04 03:57:05;;;;;;;;;;;;;;;4.28;98.58;97706.84;1767844;79;20098;-60
2022/01/04 03:59:32;;;;;;;;;;;;;;;4.26;98.70;97703.89;1753391;80;21054;-60
2022/01/04 04:01:58;;;;;;;;;;;;;;;4.25;98.84;97693.17;1740278;80;20190;-61
2022/01/04 04:04:25;;;;;;;;;;;;;;;4.28;98.98;97693.46;1735666;80;20169;-61
2022/01/04 04:06:51;;;;;;;;;;;;;;;4.32;99.10;97696.73;1737997;80;20167;-61
2022/01/04 04:09:18;;;;;;;;;;;;;;;4.36;99.13;97690.47;1736903;81;20129;-61
2022/01/04 04:11:44;;;;;;;;;;;;;;;4.37;99.04;97692.13;1744557;80;21112;-61
2022/01/04 04:14:10;;;;;;;;;;;;;;;4.39;99.00;97698.05;1758962;81;20082;-61
2022/01/04 04:16:37;;;;;;;;;;;;;;;4.38;98.92;97697.22;1765068;81;20122;-61
2022/01/04 04:19:03;;;;;;;;;;;;;;;4.39;98.97;97695.47;1767791;79;20156;-61
2022/01/04 04:21:29;;;;;;;;;;;;;;;4.39;99.06;97698.87;1769140;81;20126;-61
2022/01/04 04:23:55;;;;;;;;;;;;;;;4.40;99.19;97691.98;1750847;81;21039;-61
2022/01/04 04:26:22;;;;;;;;;;;;;;;4.42;99.32;97692.71;1759938;81;20082;-61
2022/01/04 04:28:48;;;;;;;;;;;;;;;4.45;99.36;97689.95;1745072;81;20124;-61
2022/01/04 04:31:15;;;;;;;;;;;;;;;4.48;99.32;97687.20;1750988;80;20082;-61
2022/01/04 04:33:41;;;;;;;;;;;;;;;4.52;99.30;97695.18;1752558;81;20094;-61
2022/01/04 04:36:09;;;;;;;;;;;;;;;4.55;99.33;97696.30;1748165;80;21192;-61
2022/01/04 04:38:35;;;;;;;;;;;;;;;4.60;99.39;97690.42;1740527;81;20080;-61
2022/01/04 04:41:01;;;;;;;;;;;;;;;4.64;99.21;97682.86;1753333;81;20112;-61
2022/01/04 04:43:28;;;;;;;;;;;;;;;4.64;99.16;97676.86;1758240;81;20111;-61
2022/01/04 04:45:54;;;;;;;;;;;;;;;4.65;99.32;97676.79;1757456;81;20121;-61
2022/01/04 04:48:20;;;;;;;;;;;;;;;4.65;99.21;97679.38;1748017;80;21027;-61
2022/01/04 04:50:47;;;;;;;;;;;;;;;4.66;99.15;97670.69;1756472;81;20183;-61
2022/01/04 04:53:13;;;;;;;;;;;;;;;4.72;99.06;97669.52;1746212;81;20112;-61
2022/01/04 04:55:39;;;;;;;;;;;;;;;4.74;99.00;97662.98;1753920;81;20440;-61
2022/01/04 04:58:06;;;;;;;;;;;;;;;4.75;98.76;97663.34;1767233;80;20115;-61
2022/01/04 05:00:32;;;;;;;;;;;;;;;4.70;98.51;97667.03;1771434;80;21195;-61
2022/01/04 05:02:59;;;;;;;;;;;;;;;4.64;98.42;97664.77;1744036;80;20118;-61
2022/01/04 05:05:25;;;;;;;;;;;;;;;4.58;98.74;97662.99;1752778;79;20173;-62
2022/01/04 05:07:52;;;;;;;;;;;;;;;4.54;98.84;97650.70;1756403;79;20509;-61
2022/01/04 05:10:18;;;;;;;;;;;;;;;4.48;98.79;97649.73;1750119;81;20120;-61
2022/01/04 05:12:44;;;;;;;;;;;;;;;4.44;98.81;97646.95;1757937;81;21093;-61
2022/01/04 05:15:11;;;;;;;;;;;;;;;4.40;98.86;97648.89;1755192;79;20090;-61
2022/01/04 05:17:37;;;;;;;;;;;;;;;4.40;99.07;97642.89;1753822;80;20082;-60
2022/01/04 05:20:04;;;;;;;;;;;;;;;4.42;99.24;97634.58;1742792;80;20136;-61
2022/01/04 05:22:30;;;;;;;;;;;;;;;4.44;99.21;97634.04;1775704;80;20454;-61
2022/01/04 05:24:57;;;;;;;;;;;;;;;4.42;99.04;97638.45;1764956;80;21056;-60
2022/01/04 05:27:23;;;;;;;;;;;;;;;4.40;98.91;97627.39;1753567;80;20110;-61
2022/01/04 05:29:50;;;;;;;;;;;;;;;4.34;98.78;97626.41;1763727;81;20476;-61
2022/01/04 05:32:16;;;;;;;;;;;;;;;4.25;98.79;97622.13;1749916;80;20108;-61
2022/01/04 05:34:42;;;;;;;;;;;;;;;4.21;98.82;97630.98;1731735;81;20151;-61
2022/01/04 05:37:09;;;;;;;;;;;;;;;4.16;98.80;97626.98;1769224;79;21017;-61
2022/01/04 05:39:35;;;;;;;;;;;;;;;4.10;98.90;97635.89;1758205;80;20173;-61
2022/01/04 05:42:01;;;;;;;;;;;;;;;4.10;99.20;97625.56;1766738;80;20103;-61
2022/01/04 05:44:28;;;;;;;;;;;;;;;4.15;99.37;97630.49;1756322;80;20133;-61
2022/01/04 05:46:54;;;;;;;;;;;;;;;4.19;99.46;97628.93;1774982;79;20141;-61
2022/01/04 05:49:20;;;;;;;;;;;;;;;4.25;99.44;97622.13;1775167;79;21021;-61
2022/01/04 05:51:46;;;;;;;;;;;;;;;4.30;99.36;97614.59;1787709;80;20098;-60
2022/01/04 05:54:13;;;;;;;;;;;;;;;4.36;99.34;97610.38;1767166;80;20098;-61
2022/01/04 05:56:39;;;;;;;;;;;;;;;4.39;99.26;97607.62;1772593;80;20116;-60
2022/01/04 05:59:05;;;;;;;;;;;;;;;4.42;99.23;97610.86;1762855;80;20158;-61
2022/01/04 06:01:32;;;;;;;;;;;;;;;4.43;99.19;97598.80;1737327;81;21139;-60
2022/01/04 06:03:58;;;;;;;;;;;;;;;4.43;99.08;97602.67;1768217;81;20098;-60
2022/01/04 06:06:24;;;;;;;;;;;;;;;4.42;99.02;97602.27;1732001;82;20108;-61
2022/01/04 06:08:51;;;;;;;;;;;;;;;4.43;99.03;97609.13;1762796;81;20454;-61
2022/01/04 06:16:50;;;;;;;;;;;;;;;4.49;99.19;97598.44;1762347;81;20431;-61
2022/01/04 06:19:16;;;;;;;;;;;;;;;4.55;99.28;97606.30;1769151;81;20113;-61
2022/01/04 06:21:43;;;;;;;;;;;;;;;4.58;99.30;97600.50;1766161;81;20564;-59
2022/01/04 06:24:11;;;;;;;;;;;;;;;4.58;99.26;97592.73;1758842;80;20208;-61
2022/01/04 06:26:38;;;;;;;;;;;;;;;4.61;99.25;97592.56;1762830;81;21183;-60
2022/01/04 06:29:04;;;;;;;;;;;;;;;4.64;99.30;97604.48;1765359;80;20521;-60
2022/01/04 06:31:30;;;;;;;;;;;;;;;4.68;99.29;97601.64;1769473;81;20129;-61
2022/01/04 06:33:58;;;;;;;;;;;;;;;4.73;99.26;97595.36;1766111;80;20108;-62
2022/01/04 06:36:24;;;;;;;;;;;;;;;4.75;99.13;97598.70;1759300;81;20158;-60
2022/01/04 06:38:51;;;;;;;;;;;;;;;4.76;99.08;97597.77;1765646;81;20675;-60
2022/01/04 06:41:17;;;;;;;;;;;;;;;4.77;99.05;97592.99;1762434;81;20158;-60
2022/01/04 06:43:43;;;;;;;;;;;;;;;4.76;98.95;97599.06;1763881;81;20442;-61
2022/01/04 06:46:11;;;;;;;;;;;;;;;4.74;98.88;97597.05;1762074;80;20080;-60
2022/01/04 06:48:38;;;;;;;;;;;;;;;4.75;98.94;97593.53;1734302;81;20080;-60
2022/01/04 06:51:04;;;;;;;;;;;;;;;4.75;98.98;97596.12;1743449;81;22638;-60
2022/01/04 06:53:31;;;;;;;;;;;;;;;4.75;98.94;97596.95;1758373;81;20300;-60
2022/01/04 06:55:57;;;;;;;;;;;;;;;4.71;98.96;97588.55;1761531;81;20094;-61
2022/01/04 06:58:23;;;;;;;;;;;;;;;4.70;98.78;97584.30;1766110;80;20599;-60
2022/01/04 07:00:50;;;;;;;;;;;;;;;4.66;98.64;97584.55;1731866;82;20118;-61
2022/01/04 07:03:16;;;;;;;;;;;;;;;4.61;98.57;97583.52;1745695;81;21162;-60
2022/01/04 07:05:43;;;;;;;;;;;;;;;4.56;98.66;97581.65;1765520;81;20466;-60
2022/01/04 07:08:09;;;;;;;;;;;;;;;4.56;98.79;97586.81;1766040;81;20135;-60
2022/01/04 07:10:35;;;;;;;;;;;;;;;4.57;98.93;97582.05;1747738;81;20082;-60
2022/01/04 07:13:02;;;;;;;;;;;;;;;4.57;99.05;97580.75;1747394;81;20114;-61
2022/01/04 07:15:29;;;;;;;;;;;;;;;4.61;99.19;97580.93;1755681;80;21017;-60
2022/01/04 07:17:58;;;;;;;;;;;;;;;4.66;99.25;97575.05;1762415;80;20476;-61
2022/01/04 07:20:24;;;;;;;;;;;;;;;4.68;99.26;97578.38;1752963;80;20167;-60
2022/01/04 07:22:51;;;;;;;;;;;;;;;4.75;99.21;97580.61;1751936;81;20157;-60
2022/01/04 07:25:18;;;;;;;;;;;;;;;4.78;99.12;97583.02;1747709;81;20153;-61
2022/01/04 07:27:45;;;;;;;;;;;;;;;4.80;99.09;97579.42;1708086;81;22026;-61
2022/01/04 07:30:12;;;;;;;;;;;;;;;4.83;99.03;97578.41;1748475;81;20437;-61
2022/01/04 07:32:39;;;;;;;;;;;;;;;4.84;99.04;97577.48;1754915;81;20151;-61
2022/01/04 07:35:09;;;;;;;;;;;;;;;4.87;99.02;97577.30;1753670;80;20114;-62
2022/01/04 07:37:41;;;;;;;;;;;;;;;4.90;99.06;97579.70;1738162;80;20112;-61
2022/01/04 07:40:12;;;;;;;;;;;;;;;4.92;98.98;97583.04;1732767;81;21032;-60
2022/01/04 07:42:47;;;;;;;;;;;;;;;4.92;98.99;97581.28;1727279;81;20186;-62
2022/01/04 07:45:21;;;;;;;;;;;;;;;4.99;99.09;97583.06;1753031;80;20444;-62
2022/01/04 07:47:50;;;;;;;;;;;;;;;5.03;98.96;97571.60;1750530;80;20126;-60
2022/01/04 07:50:22;;;;;;;;;;;;;;;5.08;98.93;97563.11;1713792;81;20155;-60
2022/01/04 07:53:00;;;;;;;;;;;;;;;5.13;98.73;97559.80;1747651;80;22161;-61
2022/01/04 07:58:30;;;;;;;10.70;5.22;;;;;;;4.97;99.47;97573.27;1845319;75;23412;-61
2022/01/04 08:01:16;;;;;;;9.30;4.65;;;;;;;4.94;100.00;97565.69;1813797;76;22073;-61
2022/01/04 08:03:48;;;;;;;12.60;4.75;;;;;;;4.99;100.00;97559.79;1842986;75;21014;-60
2022/01/04 08:06:16;;;;;;;14.95;5.00;;;;;;;5.07;100.00;97556.29;1835571;76;21004;-62
2022/01/04 08:08:56;;;;;;;19.42;6.65;;;;;;;5.10;100.00;97563.86;1829066;76;21009;-61
2022/01/04 08:11:32;;;;;;;16.25;5.50;;;;;;;5.15;100.00;97570.04;1822951;76;21071;-61
2022/01/04 08:14:16;;;;;;;10.90;4.92;;;;;;;5.19;100.00;97570.70;1839527;76;21063;-62
2022/01/04 08:16:59;;;;;;;14.45;5.28;;;;;;;5.21;100.00;97572.72;1841671;76;21307;-61
2022/01/04 08:19:40;;;;;;;13.95;4.50;;;;;;;5.21;99.83;97576.16;1846804;76;22259;-62
2022/01/04 08:25:05;;;;;;;11.12;4.62;;;;;;;5.28;99.55;97570.97;1676000;83;21046;-62
2022/01/04 08:27:52;;;;;;;9.33;4.17;;;;;;;5.33;99.44;97568.95;1673674;83;21048;-62
2022/01/04 08:30:30;;;;;;;13.18;4.35;;;;;;;5.35;99.36;97567.58;1698344;82;21346;-61
2022/01/04 08:33:05;;;;;;;12.05;4.15;;;;;;;5.37;99.35;97560.06;1654814;84;21163;-59
2022/01/04 08:35:53;;;;;;;13.98;4.53;;;;;;;5.42;99.38;97554.62;1624172;87;21068;-61
2022/01/04 08:38:29;;;;;;;11.20;4.60;;;;;;;5.44;99.14;97561.83;1609256;88;21292;-59
2022/01/04 08:41:08;;;;;;;11.40;5.22;;;;;;;5.45;99.15;97562.19;1591950;88;21714;-59
2022/01/04 08:43:37;;;;;;;13.98;4.55;;;;;;;5.44;98.96;97556.66;1622635;87;21137;-60
2022/01/04 08:46:12;;;;;;;10.82;5.00;;;;;;;5.44;99.04;97556.66;1639337;86;21152;-59
2022/01/04 08:49:13;;;;;;;14.47;5.40;;;;;;;5.45;99.04;97551.02;1641182;86;21132;-60
2022/01/04 08:51:43;;;;;;;15.35;4.47;;;;;;;5.42;98.82;97555.09;1654822;86;21124;-60
2022/01/04 08:54:15;;;;;;;10.13;5.45;;;;;;;5.39;98.86;97557.39;1647036;85;21038;-60
2022/01/04 08:56:54;;;;;;;10.65;5.15;;;;;;;5.39;98.98;97557.39;1635371;86;21148;-59
2022/01/04 08:59:32;;;;;;;11.12;4.95;;;;;;;5.41;98.99;97553.43;1584745;88;21057;-59
2022/01/04 09:02:22;;;;;;;;;;;;;;;;;;;;;
2022/01/04 09:04:43;;;;;;;10.23;5.00;;;;;;;5.50;99.24;97558.04;1617183;87;21026;-60
2022/01/04 09:07:18;;;;;;;8.18;4.42;;;;;;;5.57;99.24;97551.11;1625268;86;21044;-60
2022/01/04 09:09:55;;;;;;;8.73;4.95;;;;;;;5.62;99.11;97554.69;1606385;88;21223;-60
2022/01/04 09:21:37;;;;;;;;;;;;;;;;;;;;;
2022/01/04 09:24:02;;;;;;;11.88;5.42;;;;;;;5.87;98.72;97541.05;1543153;92;21563;-60
2022/01/04 09:26:54;;;;;;;12.65;5.65;;;;;;;5.87;98.64;97538.45;1597692;88;21069;-60
2022/01/04 09:29:37;;;;;;;14.33;5.35;;;;;;;5.91;98.80;97537.34;1673125;84;21049;-60
2022/01/04 09:32:05;;;;;;;14.35;5.33;;;;;;;5.96;98.69;97530.13;1697543;84;21124;-60
2022/01/04 09:34:58;;;;;;;12.93;5.80;;;;;;;5.96;98.35;97532.72;1682802;84;21144;-60
2022/01/04 09:37:55;;;;;;;13.95;7.35;;;;;;;5.97;98.26;97521.45;1689329;82;22490;-60
2022/01/04 09:40:13;;;;;;;14.43;6.50;;;;;;;5.98;98.45;97514.50;1678591;82;21042;-60
2022/01/04 09:43:07;;;;;;;;;;;;;;;;;;;;;
2022/01/04 09:45:44;;;;;;;12.60;5.03;;;;;;;5.97;98.17;97507.67;1699845;82;21081;-59
2022/01/04 09:48:32;;;;;;;9.25;4.62;;;;;;;5.97;98.13;97502.02;1695371;83;21167;-61
2022/01/04 09:51:07;;;;;;;10.95;5.25;;;;;;;5.95;97.97;97499.16;1679663;82;21046;-60
2022/01/04 09:53:42;;;;;;;15.78;8.25;;;;;;;5.92;97.88;97494.97;1697423;84;22617;-59
2022/01/04 09:56:24;;;;;;;15.10;8.85;;;;;;;5.92;97.92;97493.67;1692291;83;21224;-61
2022/01/04 09:58:55;;;;;;;11.55;6.53;;;;;;;5.94;98.00;97499.63;1724062;82;21531;-61
2022/01/04 10:01:38;;;;;;;17.32;6.78;;;;;;;5.97;97.98;97502.02;1682313;82;21076;-60
2022/01/04 10:04:25;;;;;;;11.57;6.25;;;;;;;5.97;98.07;97504.61;1689325;82;21787;-58
2022/01/04 10:07:15;;;;;;;10.65;5.60;;;;;;;5.98;97.80;97497.19;1694937;82;21036;-61
2022/01/04 10:09:56;;;;;;;8.13;4.78;;;;;;;5.91;97.57;97493.31;1718700;81;21006;-59
2022/01/04 10:12:36;;;;;;;11.63;4.40;;;;;;;5.86;97.69;97490.19;1722687;81;21754;-60
2022/01/04 10:15:29;;;;;;;;;;;;;;;;;;;;;
2022/01/04 10:18:18;;;;;;;9.80;4.37;;;;;;;5.92;97.83;97471.66;1691632;82;21225;-61
2022/01/04 10:21:04;;;;;;;15.60;5.30;;;;;;;5.89;97.70;97470.56;1729198;81;21034;-61
2022/01/04 10:23:55;;;;;;;6.95;4.15;;;;;;;5.87;97.89;97471.11;1729542;81;20963;-60
2022/01/04 10:26:53;;;;;;;;;;;;;;;;;;;;;
2022/01/04 10:29:27;;;;;;;12.33;4.50;;;;;;;5.78;97.79;97477.72;1711409;83;20975;-60
2022/01/04 10:32:03;;;;;;;9.20;4.75;;;;;;;5.77;98.20;97471.33;1677267;82;21093;-60
2022/01/04 10:34:59;;;;;;;8.73;4.28;;;;;;;5.80;97.88;97462.92;1720565;81;21074;-59
2022/01/04 10:37:39;;;;;;;11.22;4.92;;;;;;;5.80;97.62;97451.73;1693196;83;21762;-61
2022/01/04 10:40:34;;;;;;;14.78;5.15;;;;;;;5.80;97.76;97447.38;1667664;83;21609;-61
2022/01/04 10:43:28;;;;;;;12.05;5.53;;;;;;;5.81;97.79;97446.91;1691154;83;21158;-61
2022/01/04 10:46:05;;;;;;;13.00;6.22;;;;;;;5.84;97.68;97443.65;1723568;81;20992;-60
2022/01/04 10:48:52;;;;;;;10.23;5.17;;;;;;;5.84;97.72;97448.00;1666595;84;21006;-59
2022/01/04 10:51:23;;;;;;;13.22;5.90;;;;;;;5.81;97.42;97453.39;1704369;82;20944;-61
2022/01/04 10:54:29;;;;;;;15.90;7.35;;;;;;;5.77;97.36;97457.94;1720622;83;21329;-60
2022/01/04 10:57:25;;;;;;;8.75;5.40;;;;;;;5.74;97.33;97445.63;1712905;81;21062;-60
2022/01/04 11:00:18;;;;;;;9.40;5.10;;;;;;;5.70;97.45;97435.11;1686426;83;20967;-61
2022/01/04 11:02:58;;;;;;;14.87;6.15;;;;;;;5.71;97.39;97429.82;1702400;83;21113;-59
2022/01/04 11:05:30;;;;;;;12.85;5.75;;;;;;;5.70;97.23;97416.52;1637534;84;21168;-59
2022/01/04 11:08:03;;;;;;;12.03;5.65;;;;;;;5.69;97.31;97416.17;1710004;81;21005;-60
2022/01/04 11:10:50;;;;;;;10.58;5.12;;;;;;;5.71;97.24;97405.70;1725805;80;21603;-60
2022/01/04 11:13:24;;;;;;;12.43;6.17;;;;;;;5.73;97.42;97409.03;1742581;81;21137;-62
2022/01/04 11:16:03;;;;;;;12.15;5.08;;;;;;;5.75;97.31;97409.77;1737722;79;21100;-59
2022/01/04 11:18:42;;;;;;;11.45;5.50;;;;;;;5.77;97.14;97406.59;1764096;80;21032;-60
2022/01/04 11:21:41;;;;;;;10.10;5.12;;;;;;;5.74;97.27;97410.67;1806131;77;21524;-60
2022/01/04 11:24:39;;;;;;;9.38;4.83;;;;;;;5.77;97.33;97393.64;1772242;79;20995;-60
2022/01/04 11:30:03;;;;;;;11.10;4.75;;;;;;;5.82;97.20;97382.53;1700373;82;21067;-61
2022/01/04 11:32:34;;;;;;;7.37;5.00;;;;;;;5.86;97.19;97371.05;1700525;82;21078;-61
2022/01/04 11:35:20;;;;;;;12.90;5.22;;;;;;;5.88;97.03;97364.02;1700333;82;21244;-61
2022/01/04 11:38:32;;;;;;;12.78;6.55;;;;;;;5.89;97.04;97360.48;1697699;82;21085;-60
2022/01/04 11:41:19;;;;;;;11.12;6.10;;;;;;;5.90;97.24;97351.78;1689758;82;21319;-60
2022/01/04 11:43:59;;;;;;;10.85;5.30;;;;;;;5.99;96.94;97343.45;1696692;82;21110;-60
2022/01/04 11:46:51;;;;;;;11.33;4.72;;;;;;;5.92;96.98;97340.86;1700128;82;21094;-60
2022/01/04 11:49:26;;;;;;;7.03;4.08;;;;;;;5.97;96.87;97345.30;1699031;82;21954;-60
2022/01/04 11:52:08;;;;;;;10.08;4.97;;;;;;;5.95;96.89;97359.28;1699290;82;21142;-60
2022/01/04 11:54:41;;;;;;;9.30;5.08;;;;;;;5.91;97.13;97349.57;1674427;82;21050;-61
2022/01/04 11:57:26;;;;;;;12.73;5.87;;;;;;;5.94;97.02;97347.28;1696382;81;21209;-61
2022/01/04 12:00:07;;;;;;;11.70;5.85;;;;;;;5.95;96.96;97336.80;1715116;81;21033;-60
2022/01/04 12:02:43;;;;;;;11.35;5.60;;;;;;;5.97;96.78;97327.17;1734817;80;21160;-60
2022/01/04 12:05:27;;;;;;;10.18;5.65;;;;;;;6.03;97.18;97315.10;1733618;80;20967;-60
2022/01/04 12:08:30;;;;;;;;;;;;;;;;;;;;;
2022/01/04 12:10:56;;;;;;;15.10;6.78;;;;;;;6.12;96.72;97322.72;1767398;80;21066;-59
2022/01/04 12:13:27;;;;;;;12.15;6.80;;;;;;;6.14;96.87;97320.86;1757022;80;21098;-59
2022/01/04 12:16:06;;;;;;;14.68;7.05;;;;;;;6.11;96.63;97323.66;1760503;80;20947;-60
2022/01/04 12:18:38;;;;;;;16.87;6.28;;;;;;;6.10;96.49;97321.16;1777162;80;21078;-59
2022/01/04 12:21:16;;;;;;;15.13;6.60;;;;;;;6.02;96.45;97325.11;1756002;78;21632;-59
2022/01/04 12:23:46;;;;;;;13.48;5.85;;;;;;;6.01;96.54;97320.84;1779147;80;21043;-60
2022/01/04 12:26:18;;;;;;;16.48;6.75;;;;;;;6.00;96.65;97314.02;1785328;80;21070;-60
2022/01/04 12:28:53;;;;;;;16.30;7.33;;;;;;;5.97;96.70;97312.93;1774787;80;20998;-60
2022/01/04 12:31:27;;;;;;;12.78;6.53;;;;;;;5.95;96.66;97310.89;1745130;80;21069;-60
2022/01/04 12:34:25;;;;;;;15.00;7.00;;;;;;;5.90;96.51;97305.16;1766622;78;21184;-60
2022/01/04 12:37:20;;;;;;;13.80;6.60;;;;;;;5.84;96.51;97309.45;1765162;80;20978;-59
2022/01/04 12:40:03;;;;;;;15.38;7.20;;;;;;;5.85;96.73;97308.52;1809641;76;21016;-60
2022/01/04 12:42:52;;;;;;;14.43;6.92;;;;;;;5.84;96.87;97304.28;1772396;78;21686;-59
2022/01/04 12:45:22;;;;;;;11.48;6.12;;;;;;;5.87;96.87;97287.23;1831580;76;20963;-60
2022/01/04 12:48:01;;;;;;;14.63;6.28;;;;;;;5.84;96.55;97277.09;1824506;76;21059;-60
2022/01/04 12:53:49;;;;;;;13.35;6.25;;;;;;;5.86;96.43;97271.34;1705330;82;21071;-59
2022/01/04 12:56:21;;;;;;;10.58;6.30;;;;;;;5.86;96.34;97267.47;1663754;84;21562;-60
2022/01/04 12:58:53;;;;;;;11.08;6.08;;;;;;;5.84;96.12;97264.96;1708118;82;21083;-60
2022/01/04 13:01:35;;;;;;;14.07;6.80;;;;;;;5.79;96.14;97252.78;1704087;82;21182;-58
2022/01/04 13:04:20;;;;;;;13.48;6.40;;;;;;;5.75;96.14;97246.64;1706521;83;21214;-59
2022/01/04 13:06:54;;;;;;;11.95;6.45;;;;;;;5.69;96.19;97247.88;1666688;83;21581;-59
2022/01/04 13:09:26;;;;;;;11.73;6.17;;;;;;;5.63;96.12;97247.00;1712954;82;21099;-59
2022/01/04 13:12:02;;;;;;;11.15;5.90;;;;;;;5.56;96.21;97247.86;1696380;83;21085;-59
2022/01/04 13:14:36;;;;;;;18.32;7.60;;;;;;;5.57;96.19;97252.13;1713807;82;21477;-60
2022/01/04 13:17:15;;;;;;;12.03;6.40;;;;;;;5.53;96.23;97239.00;1715975;82;22125;-59
2022/01/04 13:19:46;;;;;;;15.98;7.83;;;;;;;5.51;96.30;97231.80;1706340;82;21870;-60
2022/01/04 13:22:20;;;;;;;12.85;7.42;;;;;;;5.50;96.37;97210.73;1705227;82;21189;-59
2022/01/04 13:25:04;;;;;;;11.95;7.25;;;;;;;5.44;96.43;97213.74;1703577;83;21055;-59
2022/01/04 13:27:47;;;;;;;13.22;7.05;;;;;;;5.38;96.47;97223.20;1705845;82;21602;-59
2022/01/04 13:30:31;;;;;;;13.40;6.85;;;;;;;5.36;96.72;97212.13;1746151;78;20988;-59